Main page
METAR-TAF:

METAR-TAF

Airports :

Quad City International Airport

Moline, Illinois, United States

latitude: 41-27-05N, longitude: 090-30-53W, elevation: 587 ft

Current weather observation

The report was made 1 hour and 0 minutes ago, at 20:52 UTC
Wind 10 mph from the North with gusts up to 20 mph
Temperature 25°F
Humidity 35%
Pressure 30.72 in. Hg
Visibility: 10 miles
Clear sky

METAR: KMLI 202052Z 35009G17KT 10SM CLR M04/M17 A3072 RMK AO2 SLP413 T10391167 56019

Time: 15:52 (21:52 UTC)

Forecast

The report was made 53 minutes ago, at 20:59 UTC
Forecast valid from 20 at 21 UTC to 21 at 18 UTC
Wind 14 mph from the North/Northwest
Visibility: 6 miles
Clear sky
From 21 at 0400 UTC
Wind 5 mph from the Southwest
Visibility: 6 miles
Clear sky

TAF: KMLI 202059Z 2021/2118 34012KT P6SM SKC FM210400 23004KT P6SM SKC

Weather observations and forecasts of more than 4000 airports (METAR and TAF reports).

The available stations are represented by yellow and red dots on the map.

Hover mouse over dot to see the name of the station.

Then click to see weather observations and forecasts.

To change the map : click on the green buttons with a black cross to zoom in, on the green button with a dash to zoom out, or on the green arrows for adjacent maps.


METAR-TAF: